sensor_id;sensor_type;location;lat;lon;timestamp;P1;durP1;ratioP1;P2;durP2;ratioP2
12296;SDS011;6211;49.124;9.152;2022-09-09T00:00:28;2.28;;;1.10;;
12296;SDS011;6211;49.124;9.152;2022-09-09T00:02:59;0.80;;;0.77;;
12296;SDS011;6211;49.124;9.152;2022-09-09T00:05:29;2.97;;;1.10;;
12296;SDS011;6211;49.124;9.152;2022-09-09T00:07:58;0.90;;;0.70;;
12296;SDS011;6211;49.124;9.152;2022-09-09T00:10:29;0.88;;;0.88;;
12296;SDS011;6211;49.124;9.152;2022-09-09T00:13:00;0.68;;;0.68;;
12296;SDS011;6211;49.124;9.152;2022-09-09T00:15:29;2.83;;;1.23;;
12296;SDS011;6211;49.124;9.152;2022-09-09T00:18:01;1.05;;;0.90;;
12296;SDS011;6211;49.124;9.152;2022-09-09T00:20:32;1.13;;;0.90;;
12296;SDS011;6211;49.124;9.152;2022-09-09T00:23:04;2.05;;;1.00;;
12296;SDS011;6211;49.124;9.152;2022-09-09T00:25:35;1.33;;;1.00;;
12296;SDS011;6211;49.124;9.152;2022-09-09T00:28:08;1.50;;;0.80;;
12296;SDS011;6211;49.124;9.152;2022-09-09T00:30:39;1.08;;;0.98;;
12296;SDS011;6211;49.124;9.152;2022-09-09T00:33:09;0.70;;;0.70;;
12296;SDS011;6211;49.124;9.152;2022-09-09T00:35:41;0.95;;;0.80;;
12296;SDS011;6211;49.124;9.152;2022-09-09T00:38:10;2.42;;;0.88;;
12296;SDS011;6211;49.124;9.152;2022-09-09T00:40:39;1.35;;;0.75;;
12296;SDS011;6211;49.124;9.152;2022-09-09T00:43:25;0.65;;;0.65;;
12296;SDS011;6211;49.124;9.152;2022-09-09T00:48:46;1.85;;;1.10;;
12296;SDS011;6211;49.124;9.152;2022-09-09T00:51:17;1.33;;;0.80;;
12296;SDS011;6211;49.124;9.152;2022-09-09T00:53:56;1.42;;;1.00;;
12296;SDS011;6211;49.124;9.152;2022-09-09T00:56:25;2.83;;;1.10;;
12296;SDS011;6211;49.124;9.152;2022-09-09T00:58:57;0.80;;;0.80;;
12296;SDS011;6211;49.124;9.152;2022-09-09T01:01:25;1.63;;;0.98;;
12296;SDS011;6211;49.124;9.152;2022-09-09T01:03:53;0.77;;;0.77;;
12296;SDS011;6211;49.124;9.152;2022-09-09T01:06:21;2.10;;;1.13;;
12296;SDS011;6211;49.124;9.152;2022-09-09T01:08:58;1.23;;;0.95;;
12296;SDS011;6211;49.124;9.152;2022-09-09T01:11:31;1.10;;;1.00;;
12296;SDS011;6211;49.124;9.152;2022-09-09T01:14:04;0.80;;;0.80;;
12296;SDS011;6211;49.124;9.152;2022-09-09T01:16:36;0.60;;;0.60;;
12296;SDS011;6211;49.124;9.152;2022-09-09T01:19:04;1.13;;;0.77;;
12296;SDS011;6211;49.124;9.152;2022-09-09T01:21:34;3.85;;;0.95;;
12296;SDS011;6211;49.124;9.152;2022-09-09T01:24:12;0.85;;;0.85;;
12296;SDS011;6211;49.124;9.152;2022-09-09T01:26:43;2.03;;;0.75;;
12296;SDS011;6211;49.124;9.152;2022-09-09T01:29:12;1.38;;;0.60;;
12296;SDS011;6211;49.124;9.152;2022-09-09T01:31:40;0.73;;;0.73;;
12296;SDS011;6211;49.124;9.152;2022-09-09T01:34:09;0.88;;;0.80;;
12296;SDS011;6211;49.124;9.152;2022-09-09T01:36:38;3.20;;;1.05;;
12296;SDS011;6211;49.124;9.152;2022-09-09T01:39:06;1.42;;;0.80;;
12296;SDS011;6211;49.124;9.152;2022-09-09T01:41:33;5.35;;;1.17;;
12296;SDS011;6211;49.124;9.152;2022-09-09T01:44:02;0.88;;;0.80;;
12296;SDS011;6211;49.124;9.152;2022-09-09T01:46:30;0.82;;;0.82;;
12296;SDS011;6211;49.124;9.152;2022-09-09T01:48:57;0.82;;;0.80;;
12296;SDS011;6211;49.124;9.152;2022-09-09T01:51:25;1.02;;;0.82;;
12296;SDS011;6211;49.124;9.152;2022-09-09T01:53:53;0.60;;;0.60;;
12296;SDS011;6211;49.124;9.152;2022-09-09T01:56:26;0.70;;;0.70;;
12296;SDS011;6211;49.124;9.152;2022-09-09T01:58:58;1.67;;;0.95;;
12296;SDS011;6211;49.124;9.152;2022-09-09T02:01:32;1.33;;;1.23;;
12296;SDS011;6211;49.124;9.152;2022-09-09T02:04:02;0.68;;;0.68;;
12296;SDS011;6211;49.124;9.152;2022-09-09T02:06:31;0.57;;;0.57;;
12296;SDS011;6211;49.124;9.152;2022-09-09T02:09:00;1.25;;;1.00;;
12296;SDS011;6211;49.124;9.152;2022-09-09T02:11:29;0.90;;;0.90;;
12296;SDS011;6211;49.124;9.152;2022-09-09T02:13:57;1.15;;;0.70;;
12296;SDS011;6211;49.124;9.152;2022-09-09T02:16:28;0.60;;;0.60;;
12296;SDS011;6211;49.124;9.152;2022-09-09T02:19:00;0.85;;;0.85;;
12296;SDS011;6211;49.124;9.152;2022-09-09T02:21:29;2.00;;;0.77;;
12296;SDS011;6211;49.124;9.152;2022-09-09T02:24:00;1.13;;;0.93;;
12296;SDS011;6211;49.124;9.152;2022-09-09T02:26:29;1.13;;;0.82;;
12296;SDS011;6211;49.124;9.152;2022-09-09T02:28:57;1.80;;;;;
12296;SDS011;6211;49.124;9.152;2022-09-09T02:31:41;0.70;;;0.70;;
12296;SDS011;6211;49.124;9.152;2022-09-09T02:34:10;0.70;;;0.70;;
12296;SDS011;6211;49.124;9.152;2022-09-09T02:36:38;1.75;;;0.88;;
12296;SDS011;6211;49.124;9.152;2022-09-09T02:39:08;1.08;;;0.90;;
12296;SDS011;6211;49.124;9.152;2022-09-09T02:41:36;0.52;;;0.52;;
12296;SDS011;6211;49.124;9.152;2022-09-09T02:44:05;1.15;;;0.90;;
12296;SDS011;6211;49.124;9.152;2022-09-09T02:46:36;0.77;;;0.77;;
12296;SDS011;6211;49.124;9.152;2022-09-09T02:49:06;0.80;;;0.80;;
12296;SDS011;6211;49.124;9.152;2022-09-09T02:51:37;2.38;;;1.10;;
12296;SDS011;6211;49.124;9.152;2022-09-09T02:54:10;0.73;;;0.73;;
12296;SDS011;6211;49.124;9.152;2022-09-09T02:56:39;0.80;;;0.80;;
12296;SDS011;6211;49.124;9.152;2022-09-09T02:59:07;2.20;;;1.25;;
12296;SDS011;6211;49.124;9.152;2022-09-09T03:01:35;1.90;;;1.00;;
12296;SDS011;6211;49.124;9.152;2022-09-09T03:04:05;1.75;;;0.60;;
12296;SDS011;6211;49.124;9.152;2022-09-09T03:06:32;0.70;;;0.70;;
12296;SDS011;6211;49.124;9.152;2022-09-09T03:09:02;2.30;;;0.95;;
12296;SDS011;6211;49.124;9.152;2022-09-09T03:11:29;1.15;;;0.90;;
12296;SDS011;6211;49.124;9.152;2022-09-09T03:13:56;1.10;;;0.90;;
12296;SDS011;6211;49.124;9.152;2022-09-09T03:16:23;0.75;;;0.75;;
12296;SDS011;6211;49.124;9.152;2022-09-09T03:18:50;0.73;;;0.73;;
12296;SDS011;6211;49.124;9.152;2022-09-09T03:21:17;0.70;;;0.60;;
12296;SDS011;6211;49.124;9.152;2022-09-09T03:23:44;0.63;;;0.63;;
12296;SDS011;6211;49.124;9.152;2022-09-09T03:26:13;2.47;;;0.70;;
12296;SDS011;6211;49.124;9.152;2022-09-09T03:28:40;1.63;;;1.20;;
12296;SDS011;6211;49.124;9.152;2022-09-09T03:31:08;0.60;;;0.60;;
12296;SDS011;6211;49.124;9.152;2022-09-09T03:33:36;0.80;;;0.80;;
12296;SDS011;6211;49.124;9.152;2022-09-09T03:36:03;1.52;;;0.90;;
12296;SDS011;6211;49.124;9.152;2022-09-09T03:38:30;1.17;;;0.82;;
12296;SDS011;6211;49.124;9.152;2022-09-09T03:40:58;2.70;;;0.90;;
12296;SDS011;6211;49.124;9.152;2022-09-09T03:43:27;0.90;;;0.90;;
12296;SDS011;6211;49.124;9.152;2022-09-09T03:45:55;2.35;;;0.80;;
12296;SDS011;6211;49.124;9.152;2022-09-09T03:48:22;1.33;;;1.10;;
12296;SDS011;6211;49.124;9.152;2022-09-09T03:50:51;1.27;;;0.80;;
12296;SDS011;6211;49.124;9.152;2022-09-09T03:53:19;0.70;;;0.70;;
12296;SDS011;6211;49.124;9.152;2022-09-09T03:55:47;1.08;;;0.75;;
12296;SDS011;6211;49.124;9.152;2022-09-09T03:58:15;0.70;;;0.70;;
12296;SDS011;6211;49.124;9.152;2022-09-09T04:00:47;1.13;;;0.93;;
12296;SDS011;6211;49.124;9.152;2022-09-09T04:03:19;0.98;;;0.82;;
12296;SDS011;6211;49.124;9.152;2022-09-09T04:05:48;1.50;;;0.70;;
12296;SDS011;6211;49.124;9.152;2022-09-09T04:08:15;3.22;;;0.90;;
12296;SDS011;6211;49.124;9.152;2022-09-09T04:10:44;4.47;;;0.93;;
12296;SDS011;6211;49.124;9.152;2022-09-09T04:13:11;1.30;;;0.70;;
12296;SDS011;6211;49.124;9.152;2022-09-09T04:15:40;0.82;;;0.82;;
12296;SDS011;6211;49.124;9.152;2022-09-09T04:18:09;0.98;;;0.68;;
12296;SDS011;6211;49.124;9.152;2022-09-09T04:20:36;0.75;;;0.68;;
12296;SDS011;6211;49.124;9.152;2022-09-09T04:23:04;2.55;;;0.90;;
12296;SDS011;6211;49.124;9.152;2022-09-09T04:25:31;1.00;;;0.75;;
12296;SDS011;6211;49.124;9.152;2022-09-09T04:27:59;3.65;;;0.93;;
12296;SDS011;6211;49.124;9.152;2022-09-09T04:30:26;0.68;;;0.68;;
12296;SDS011;6211;49.124;9.152;2022-09-09T04:32:53;1.02;;;0.75;;
12296;SDS011;6211;49.124;9.152;2022-09-09T04:35:21;1.10;;;0.95;;
12296;SDS011;6211;49.124;9.152;2022-09-09T04:37:48;0.55;;;0.55;;
12296;SDS011;6211;49.124;9.152;2022-09-09T04:40:16;1.42;;;1.00;;
12296;SDS011;6211;49.124;9.152;2022-09-09T04:42:43;2.75;;;0.60;;
12296;SDS011;6211;49.124;9.152;2022-09-09T04:45:11;0.75;;;0.75;;
12296;SDS011;6211;49.124;9.152;2022-09-09T04:47:38;0.70;;;0.70;;
12296;SDS011;6211;49.124;9.152;2022-09-09T04:50:06;2.75;;;0.73;;
12296;SDS011;6211;49.124;9.152;2022-09-09T04:52:35;1.55;;;0.85;;
12296;SDS011;6211;49.124;9.152;2022-09-09T04:55:02;1.33;;;0.98;;
12296;SDS011;6211;49.124;9.152;2022-09-09T04:57:30;1.17;;;0.80;;
12296;SDS011;6211;49.124;9.152;2022-09-09T04:59:58;1.17;;;0.98;;
12296;SDS011;6211;49.124;9.152;2022-09-09T05:02:27;1.58;;;0.60;;
12296;SDS011;6211;49.124;9.152;2022-09-09T05:04:55;1.55;;;0.60;;
12296;SDS011;6211;49.124;9.152;2022-09-09T05:07:23;3.40;;;0.90;;
12296;SDS011;6211;49.124;9.152;2022-09-09T05:09:52;2.13;;;0.80;;
12296;SDS011;6211;49.124;9.152;2022-09-09T05:12:19;4.50;;;1.00;;
12296;SDS011;6211;49.124;9.152;2022-09-09T05:14:49;1.85;;;0.60;;
12296;SDS011;6211;49.124;9.152;2022-09-09T05:17:16;4.43;;;1.00;;
12296;SDS011;6211;49.124;9.152;2022-09-09T05:19:43;0.50;;;0.50;;
12296;SDS011;6211;49.124;9.152;2022-09-09T05:22:10;2.22;;;1.00;;
12296;SDS011;6211;49.124;9.152;2022-09-09T05:24:37;0.77;;;0.60;;
12296;SDS011;6211;49.124;9.152;2022-09-09T05:27:06;2.42;;;0.70;;
12296;SDS011;6211;49.124;9.152;2022-09-09T05:29:37;1.35;;;0.82;;
12296;SDS011;6211;49.124;9.152;2022-09-09T05:32:06;0.98;;;0.77;;
12296;SDS011;6211;49.124;9.152;2022-09-09T05:34:33;0.60;;;0.60;;
12296;SDS011;6211;49.124;9.152;2022-09-09T05:37:00;4.25;;;0.68;;
12296;SDS011;6211;49.124;9.152;2022-09-09T05:39:27;0.68;;;0.60;;
12296;SDS011;6211;49.124;9.152;2022-09-09T05:41:54;0.50;;;0.50;;
12296;SDS011;6211;49.124;9.152;2022-09-09T05:44:23;0.40;;;0.40;;
12296;SDS011;6211;49.124;9.152;2022-09-09T05:46:52;1.20;;;0.70;;
12296;SDS011;6211;49.124;9.152;2022-09-09T05:49:19;0.43;;;0.43;;
12296;SDS011;6211;49.124;9.152;2022-09-09T05:51:47;1.45;;;0.73;;
12296;SDS011;6211;49.124;9.152;2022-09-09T05:54:15;2.05;;;1.13;;
12296;SDS011;6211;49.124;9.152;2022-09-09T05:56:42;0.40;;;0.40;;
12296;SDS011;6211;49.124;9.152;2022-09-09T05:59:09;2.33;;;0.60;;
12296;SDS011;6211;49.124;9.152;2022-09-09T06:01:38;0.65;;;0.63;;
12296;SDS011;6211;49.124;9.152;2022-09-09T06:04:06;0.98;;;0.55;;
12296;SDS011;6211;49.124;9.152;2022-09-09T06:06:34;0.57;;;0.57;;
12296;SDS011;6211;49.124;9.152;2022-09-09T06:09:02;2.10;;;0.50;;
12296;SDS011;6211;49.124;9.152;2022-09-09T06:11:31;2.55;;;0.77;;
12296;SDS011;6211;49.124;9.152;2022-09-09T06:14:01;3.83;;;0.60;;
12296;SDS011;6211;49.124;9.152;2022-09-09T06:16:28;0.43;;;0.43;;
12296;SDS011;6211;49.124;9.152;2022-09-09T06:18:58;0.40;;;0.40;;
12296;SDS011;6211;49.124;9.152;2022-09-09T06:21:26;0.40;;;0.40;;
12296;SDS011;6211;49.124;9.152;2022-09-09T06:23:55;0.50;;;0.50;;
12296;SDS011;6211;49.124;9.152;2022-09-09T06:26:23;1.95;;;0.50;;
12296;SDS011;6211;49.124;9.152;2022-09-09T06:28:51;1.33;;;0.55;;
12296;SDS011;6211;49.124;9.152;2022-09-09T06:31:19;0.40;;;0.40;;
12296;SDS011;6211;49.124;9.152;2022-09-09T06:33:48;1.00;;;0.60;;
12296;SDS011;6211;49.124;9.152;2022-09-09T06:36:17;1.40;;;0.50;;
12296;SDS011;6211;49.124;9.152;2022-09-09T06:38:45;1.58;;;0.80;;
12296;SDS011;6211;49.124;9.152;2022-09-09T06:41:12;0.80;;;0.60;;
12296;SDS011;6211;49.124;9.152;2022-09-09T06:43:40;1.98;;;0.93;;
12296;SDS011;6211;49.124;9.152;2022-09-09T06:46:08;1.38;;;0.52;;
12296;SDS011;6211;49.124;9.152;2022-09-09T06:48:36;0.90;;;0.60;;
12296;SDS011;6211;49.124;9.152;2022-09-09T06:51:03;0.68;;;0.63;;
12296;SDS011;6211;49.124;9.152;2022-09-09T06:53:32;1.63;;;0.80;;
12296;SDS011;6211;49.124;9.152;2022-09-09T06:56:00;1.08;;;0.40;;
12296;SDS011;6211;49.124;9.152;2022-09-09T06:58:27;0.60;;;0.38;;
12296;SDS011;6211;49.124;9.152;2022-09-09T07:01:01;2.42;;;0.57;;
12296;SDS011;6211;49.124;9.152;2022-09-09T07:03:28;0.50;;;0.50;;
12296;SDS011;6211;49.124;9.152;2022-09-09T07:05:56;1.38;;;0.93;;
12296;SDS011;6211;49.124;9.152;2022-09-09T07:08:24;1.33;;;0.50;;
12296;SDS011;6211;49.124;9.152;2022-09-09T07:10:52;0.40;;;0.40;;
12296;SDS011;6211;49.124;9.152;2022-09-09T07:13:23;0.50;;;0.50;;
12296;SDS011;6211;49.124;9.152;2022-09-09T07:15:50;0.52;;;0.32;;
12296;SDS011;6211;49.124;9.152;2022-09-09T07:18:17;0.60;;;0.40;;
12296;SDS011;6211;49.124;9.152;2022-09-09T07:20:52;1.48;;;0.68;;
12296;SDS011;6211;49.124;9.152;2022-09-09T07:23:19;1.25;;;0.43;;
12296;SDS011;6211;49.124;9.152;2022-09-09T07:25:47;0.40;;;0.40;;
12296;SDS011;6211;49.124;9.152;2022-09-09T07:28:16;0.82;;;0.50;;
12296;SDS011;6211;49.124;9.152;2022-09-09T07:30:43;0.80;;;0.57;;
12296;SDS011;6211;49.124;9.152;2022-09-09T07:33:10;0.60;;;0.50;;
12296;SDS011;6211;49.124;9.152;2022-09-09T07:35:37;0.60;;;0.60;;
12296;SDS011;6211;49.124;9.152;2022-09-09T07:38:05;0.55;;;0.47;;
12296;SDS011;6211;49.124;9.152;2022-09-09T07:40:32;0.50;;;0.50;;
12296;SDS011;6211;49.124;9.152;2022-09-09T07:43:00;0.38;;;0.38;;
12296;SDS011;6211;49.124;9.152;2022-09-09T07:45:28;0.93;;;0.22;;
12296;SDS011;6211;49.124;9.152;2022-09-09T07:47:57;0.55;;;0.40;;
12296;SDS011;6211;49.124;9.152;2022-09-09T07:50:24;0.20;;;0.20;;
12296;SDS011;6211;49.124;9.152;2022-09-09T07:52:52;1.10;;;0.50;;
12296;SDS011;6211;49.124;9.152;2022-09-09T07:55:19;0.60;;;0.60;;
12296;SDS011;6211;49.124;9.152;2022-09-09T07:57:47;0.30;;;0.30;;
12296;SDS011;6211;49.124;9.152;2022-09-09T08:00:14;0.85;;;0.55;;
12296;SDS011;6211;49.124;9.152;2022-09-09T08:02:43;0.50;;;0.47;;
12296;SDS011;6211;49.124;9.152;2022-09-09T08:05:11;1.20;;;0.80;;
12296;SDS011;6211;49.124;9.152;2022-09-09T08:07:39;4.10;;;0.77;;
12296;SDS011;6211;49.124;9.152;2022-09-09T08:10:06;0.30;;;0.30;;
12296;SDS011;6211;49.124;9.152;2022-09-09T08:12:33;0.80;;;0.47;;
12296;SDS011;6211;49.124;9.152;2022-09-09T08:15:00;0.60;;;0.60;;
12296;SDS011;6211;49.124;9.152;2022-09-09T08:17:28;0.77;;;0.50;;
12296;SDS011;6211;49.124;9.152;2022-09-09T08:19:56;2.63;;;0.60;;
12296;SDS011;6211;49.124;9.152;2022-09-09T08:22:30;1.80;;;0.68;;
12296;SDS011;6211;49.124;9.152;2022-09-09T08:24:57;3.00;;;0.55;;
12296;SDS011;6211;49.124;9.152;2022-09-09T08:27:24;1.20;;;0.50;;
12296;SDS011;6211;49.124;9.152;2022-09-09T08:29:51;2.17;;;0.45;;
12296;SDS011;6211;49.124;9.152;2022-09-09T08:32:18;5.07;;;0.63;;
12296;SDS011;6211;49.124;9.152;2022-09-09T08:34:45;1.50;;;0.57;;
12296;SDS011;6211;49.124;9.152;2022-09-09T08:37:14;0.88;;;0.40;;
12296;SDS011;6211;49.124;9.152;2022-09-09T08:39:41;1.10;;;0.60;;
12296;SDS011;6211;49.124;9.152;2022-09-09T08:42:12;0.50;;;0.40;;
12296;SDS011;6211;49.124;9.152;2022-09-09T08:44:44;1.08;;;0.20;;
12296;SDS011;6211;49.124;9.152;2022-09-09T08:47:17;0.40;;;0.40;;
12296;SDS011;6211;49.124;9.152;2022-09-09T08:49:53;0.30;;;0.20;;
12296;SDS011;6211;49.124;9.152;2022-09-09T08:52:23;0.30;;;0.30;;
12296;SDS011;6211;49.124;9.152;2022-09-09T08:54:52;0.80;;;0.68;;
12296;SDS011;6211;49.124;9.152;2022-09-09T08:57:23;1.65;;;0.40;;
12296;SDS011;6211;49.124;9.152;2022-09-09T08:59:52;2.25;;;0.30;;
12296;SDS011;6211;49.124;9.152;2022-09-09T09:02:21;2.72;;;0.50;;
12296;SDS011;6211;49.124;9.152;2022-09-09T09:04:57;0.80;;;0.40;;
12296;SDS011;6211;49.124;9.152;2022-09-09T09:07:31;2.13;;;0.52;;
12296;SDS011;6211;49.124;9.152;2022-09-09T09:10:04;3.10;;;0.40;;
12296;SDS011;6211;49.124;9.152;2022-09-09T09:12:38;2.38;;;0.60;;
12296;SDS011;6211;49.124;9.152;2022-09-09T09:15:08;0.82;;;0.60;;
12296;SDS011;6211;49.124;9.152;2022-09-09T09:17:38;0.55;;;0.30;;
12296;SDS011;6211;49.124;9.152;2022-09-09T09:20:05;3.97;;;0.43;;
12296;SDS011;6211;49.124;9.152;2022-09-09T09:22:40;0.77;;;0.52;;
12296;SDS011;6211;49.124;9.152;2022-09-09T09:25:11;0.47;;;0.30;;
12296;SDS011;6211;49.124;9.152;2022-09-09T09:27:43;2.13;;;0.40;;
12296;SDS011;6211;49.124;9.152;2022-09-09T09:30:13;0.98;;;0.55;;
12296;SDS011;6211;49.124;9.152;2022-09-09T09:32:44;0.20;;;0.20;;
12296;SDS011;6211;49.124;9.152;2022-09-09T09:35:16;1.17;;;0.40;;
12296;SDS011;6211;49.124;9.152;2022-09-09T09:37:45;0.35;;;0.30;;
12296;SDS011;6211;49.124;9.152;2022-09-09T09:40:13;1.95;;;0.77;;
12296;SDS011;6211;49.124;9.152;2022-09-09T09:42:47;0.65;;;0.63;;
12296;SDS011;6211;49.124;9.152;2022-09-09T09:45:16;1.92;;;0.63;;
12296;SDS011;6211;49.124;9.152;2022-09-09T09:47:44;0.70;;;0.50;;
12296;SDS011;6211;49.124;9.152;2022-09-09T09:50:18;0.50;;;0.50;;
12296;SDS011;6211;49.124;9.152;2022-09-09T09:52:54;2.38;;;0.95;;
12296;SDS011;6211;49.124;9.152;2022-09-09T09:55:22;0.75;;;0.22;;
12296;SDS011;6211;49.124;9.152;2022-09-09T09:57:49;0.45;;;0.30;;
12296;SDS011;6211;49.124;9.152;2022-09-09T10:00:19;1.20;;;0.50;;
12296;SDS011;6211;49.124;9.152;2022-09-09T10:02:46;3.85;;;0.57;;
12296;SDS011;6211;49.124;9.152;2022-09-09T10:05:14;1.27;;;0.40;;
12296;SDS011;6211;49.124;9.152;2022-09-09T10:07:42;0.40;;;0.40;;
12296;SDS011;6211;49.124;9.152;2022-09-09T10:10:13;0.90;;;0.25;;
12296;SDS011;6211;49.124;9.152;2022-09-09T10:12:44;1.02;;;0.30;;
12296;SDS011;6211;49.124;9.152;2022-09-09T10:15:18;0.40;;;0.40;;
12296;SDS011;6211;49.124;9.152;2022-09-09T10:17:51;0.43;;;0.43;;
12296;SDS011;6211;49.124;9.152;2022-09-09T10:20:24;0.20;;;0.20;;
12296;SDS011;6211;49.124;9.152;2022-09-09T10:22:57;3.20;;;0.50;;
12296;SDS011;6211;49.124;9.152;2022-09-09T10:25:33;1.63;;;0.90;;
12296;SDS011;6211;49.124;9.152;2022-09-09T10:28:11;0.63;;;0.63;;
12296;SDS011;6211;49.124;9.152;2022-09-09T10:30:45;0.68;;;0.40;;
12296;SDS011;6211;49.124;9.152;2022-09-09T10:33:20;0.30;;;0.30;;
12296;SDS011;6211;49.124;9.152;2022-09-09T10:35:52;1.98;;;0.50;;
12296;SDS011;6211;49.124;9.152;2022-09-09T10:38:22;0.43;;;0.32;;
12296;SDS011;6211;49.124;9.152;2022-09-09T10:41:07;1.25;;;0.30;;
12296;SDS011;6211;49.124;9.152;2022-09-09T10:43:46;0.43;;;0.40;;
12296;SDS011;6211;49.124;9.152;2022-09-09T10:46:21;2.15;;;0.60;;
12296;SDS011;6211;49.124;9.152;2022-09-09T10:48:55;0.45;;;0.32;;
12296;SDS011;6211;49.124;9.152;2022-09-09T10:51:27;1.80;;;0.50;;
12296;SDS011;6211;49.124;9.152;2022-09-09T10:54:01;0.30;;;0.30;;
12296;SDS011;6211;49.124;9.152;2022-09-09T10:56:33;1.63;;;0.35;;
12296;SDS011;6211;49.124;9.152;2022-09-09T10:59:02;2.03;;;0.38;;
12296;SDS011;6211;49.124;9.152;2022-09-09T11:01:32;0.95;;;0.30;;
12296;SDS011;6211;49.124;9.152;2022-09-09T11:04:01;1.83;;;0.50;;
12296;SDS011;6211;49.124;9.152;2022-09-09T11:06:32;0.25;;;0.22;;
12296;SDS011;6211;49.124;9.152;2022-09-09T11:09:01;0.68;;;0.35;;
12296;SDS011;6211;49.124;9.152;2022-09-09T11:11:32;0.20;;;0.15;;
12296;SDS011;6211;49.124;9.152;2022-09-09T11:14:01;0.63;;;0.40;;
12296;SDS011;6211;49.124;9.152;2022-09-09T11:16:30;0.85;;;0.60;;
12296;SDS011;6211;49.124;9.152;2022-09-09T11:19:01;0.70;;;0.50;;
12296;SDS011;6211;49.124;9.152;2022-09-09T11:21:30;2.17;;;0.60;;
12296;SDS011;6211;49.124;9.152;2022-09-09T11:23:59;0.30;;;0.30;;
12296;SDS011;6211;49.124;9.152;2022-09-09T11:26:30;0.30;;;0.30;;
12296;SDS011;6211;49.124;9.152;2022-09-09T11:29:05;1.17;;;0.40;;
12296;SDS011;6211;49.124;9.152;2022-09-09T11:31:38;2.25;;;0.50;;
12296;SDS011;6211;49.124;9.152;2022-09-09T11:34:18;0.70;;;0.50;;
12296;SDS011;6211;49.124;9.152;2022-09-09T11:42:18;0.50;;;0.50;;
12296;SDS011;6211;49.124;9.152;2022-09-09T11:44:47;1.30;;;0.40;;
12296;SDS011;6211;49.124;9.152;2022-09-09T11:47:24;0.47;;;0.40;;
12296;SDS011;6211;49.124;9.152;2022-09-09T11:49:55;0.20;;;0.20;;
12296;SDS011;6211;49.124;9.152;2022-09-09T11:52:23;0.65;;;0.20;;
12296;SDS011;6211;49.124;9.152;2022-09-09T11:54:51;0.52;;;0.47;;
12296;SDS011;6211;49.124;9.152;2022-09-09T11:57:22;0.55;;;0.40;;
12296;SDS011;6211;49.124;9.152;2022-09-09T11:59:52;0.47;;;0.30;;
12296;SDS011;6211;49.124;9.152;2022-09-09T12:02:22;0.20;;;0.20;;
12296;SDS011;6211;49.124;9.152;2022-09-09T12:04:54;0.65;;;0.30;;
12296;SDS011;6211;49.124;9.152;2022-09-09T12:07:30;2.45;;;0.40;;
12296;SDS011;6211;49.124;9.152;2022-09-09T12:10:00;0.20;;;0.20;;
12296;SDS011;6211;49.124;9.152;2022-09-09T12:12:29;0.10;;;0.10;;
12296;SDS011;6211;49.124;9.152;2022-09-09T12:14:59;0.45;;;0.40;;
12296;SDS011;6211;49.124;9.152;2022-09-09T12:17:27;0.20;;;0.20;;
12296;SDS011;6211;49.124;9.152;2022-09-09T12:20:03;0.25;;;0.25;;
12296;SDS011;6211;49.124;9.152;2022-09-09T12:22:34;0.20;;;0.20;;
12296;SDS011;6211;49.124;9.152;2022-09-09T12:25:06;0.20;;;0.20;;
12296;SDS011;6211;49.124;9.152;2022-09-09T12:27:35;0.20;;;0.20;;
12296;SDS011;6211;49.124;9.152;2022-09-09T12:30:07;0.28;;;0.17;;
12296;SDS011;6211;49.124;9.152;2022-09-09T12:32:35;0.40;;;0.40;;
12296;SDS011;6211;49.124;9.152;2022-09-09T12:35:03;0.20;;;0.20;;
12296;SDS011;6211;49.124;9.152;2022-09-09T12:37:32;0.15;;;0.15;;
12296;SDS011;6211;49.124;9.152;2022-09-09T12:40:02;0.77;;;0.28;;
12296;SDS011;6211;49.124;9.152;2022-09-09T12:42:29;0.20;;;0.20;;
12296;SDS011;6211;49.124;9.152;2022-09-09T12:44:58;0.10;;;0.10;;
12296;SDS011;6211;49.124;9.152;2022-09-09T12:47:29;0.15;;;0.15;;
12296;SDS011;6211;49.124;9.152;2022-09-09T12:49:58;1.15;;;0.40;;
12296;SDS011;6211;49.124;9.152;2022-09-09T12:52:27;0.30;;;0.20;;
12296;SDS011;6211;49.124;9.152;2022-09-09T12:54:56;0.35;;;0.30;;
12296;SDS011;6211;49.124;9.152;2022-09-09T12:57:24;0.65;;;0.20;;
12296;SDS011;6211;49.124;9.152;2022-09-09T12:59:52;0.85;;;0.40;;
12296;SDS011;6211;49.124;9.152;2022-09-09T13:02:24;1.55;;;0.30;;
12296;SDS011;6211;49.124;9.152;2022-09-09T13:04:54;0.15;;;0.15;;
12296;SDS011;6211;49.124;9.152;2022-09-09T13:07:21;2.00;;;0.30;;
12296;SDS011;6211;49.124;9.152;2022-09-09T13:09:49;0.98;;;0.55;;
12296;SDS011;6211;49.124;9.152;2022-09-09T13:12:17;0.55;;;0.30;;
12296;SDS011;6211;49.124;9.152;2022-09-09T13:14:46;0.30;;;0.15;;
12296;SDS011;6211;49.124;9.152;2022-09-09T13:17:20;0.17;;;0.17;;
12296;SDS011;6211;49.124;9.152;2022-09-09T13:22:53;0.82;;;0.38;;
12296;SDS011;6211;49.124;9.152;2022-09-09T13:25:22;0.50;;;0.50;;
12296;SDS011;6211;49.124;9.152;2022-09-09T13:27:52;3.38;;;0.38;;
12296;SDS011;6211;49.124;9.152;2022-09-09T13:30:20;0.38;;;0.20;;
12296;SDS011;6211;49.124;9.152;2022-09-09T13:32:59;1.02;;;0.30;;
12296;SDS011;6211;49.124;9.152;2022-09-09T13:35:26;0.85;;;0.40;;
12296;SDS011;6211;49.124;9.152;2022-09-09T13:37:55;0.52;;;0.35;;
12296;SDS011;6211;49.124;9.152;2022-09-09T13:40:23;0.40;;;0.30;;
12296;SDS011;6211;49.124;9.152;2022-09-09T13:42:51;1.15;;;0.40;;
12296;SDS011;6211;49.124;9.152;2022-09-09T13:45:19;0.55;;;0.40;;
12296;SDS011;6211;49.124;9.152;2022-09-09T13:47:47;1.98;;;0.40;;
12296;SDS011;6211;49.124;9.152;2022-09-09T13:50:18;0.50;;;0.47;;
12296;SDS011;6211;49.124;9.152;2022-09-09T13:52:46;1.35;;;0.25;;
12296;SDS011;6211;49.124;9.152;2022-09-09T13:55:15;0.65;;;0.25;;
12296;SDS011;6211;49.124;9.152;2022-09-09T13:57:49;0.10;;;0.10;;
12296;SDS011;6211;49.124;9.152;2022-09-09T14:00:17;0.43;;;0.35;;
12296;SDS011;6211;49.124;9.152;2022-09-09T14:02:44;0.50;;;0.43;;
12296;SDS011;6211;49.124;9.152;2022-09-09T14:05:12;1.67;;;0.50;;
12296;SDS011;6211;49.124;9.152;2022-09-09T14:07:40;0.63;;;0.40;;
12296;SDS011;6211;49.124;9.152;2022-09-09T14:10:07;0.60;;;0.30;;
12296;SDS011;6211;49.124;9.152;2022-09-09T14:12:36;1.45;;;0.50;;
12296;SDS011;6211;49.124;9.152;2022-09-09T14:15:03;0.50;;;0.30;;
12296;SDS011;6211;49.124;9.152;2022-09-09T14:17:30;0.40;;;0.30;;
12296;SDS011;6211;49.124;9.152;2022-09-09T14:19:58;1.10;;;0.77;;
12296;SDS011;6211;49.124;9.152;2022-09-09T14:22:25;1.95;;;0.40;;
12296;SDS011;6211;49.124;9.152;2022-09-09T14:24:53;0.57;;;0.35;;
12296;SDS011;6211;49.124;9.152;2022-09-09T14:27:20;1.83;;;0.57;;
12296;SDS011;6211;49.124;9.152;2022-09-09T14:29:48;0.40;;;0.40;;
12296;SDS011;6211;49.124;9.152;2022-09-09T14:32:16;0.45;;;0.40;;
12296;SDS011;6211;49.124;9.152;2022-09-09T14:34:43;0.68;;;0.40;;
12296;SDS011;6211;49.124;9.152;2022-09-09T14:37:10;2.15;;;0.50;;
12296;SDS011;6211;49.124;9.152;2022-09-09T14:39:37;1.05;;;0.60;;
12296;SDS011;6211;49.124;9.152;2022-09-09T14:42:04;0.68;;;0.55;;
12296;SDS011;6211;49.124;9.152;2022-09-09T14:44:31;2.63;;;0.38;;
12296;SDS011;6211;49.124;9.152;2022-09-09T14:47:00;0.75;;;0.20;;
12296;SDS011;6211;49.124;9.152;2022-09-09T14:49:27;0.77;;;0.35;;
12296;SDS011;6211;49.124;9.152;2022-09-09T14:51:54;0.55;;;0.45;;
12296;SDS011;6211;49.124;9.152;2022-09-09T14:54:21;0.60;;;0.35;;
12296;SDS011;6211;49.124;9.152;2022-09-09T14:56:48;0.40;;;0.35;;
12296;SDS011;6211;49.124;9.152;2022-09-09T15:02:20;0.43;;;0.35;;
12296;SDS011;6211;49.124;9.152;2022-09-09T15:04:47;1.10;;;0.45;;
12296;SDS011;6211;49.124;9.152;2022-09-09T15:07:16;2.00;;;0.60;;
12296;SDS011;6211;49.124;9.152;2022-09-09T15:09:44;0.68;;;0.50;;
12296;SDS011;6211;49.124;9.152;2022-09-09T15:12:13;1.98;;;0.57;;
12296;SDS011;6211;49.124;9.152;2022-09-09T15:14:40;0.30;;;0.30;;
12296;SDS011;6211;49.124;9.152;2022-09-09T15:17:07;0.50;;;0.50;;
12296;SDS011;6211;49.124;9.152;2022-09-09T15:19:36;1.00;;;0.50;;
12296;SDS011;6211;49.124;9.152;2022-09-09T15:22:03;0.28;;;0.28;;
12296;SDS011;6211;49.124;9.152;2022-09-09T15:24:31;0.38;;;0.38;;
12296;SDS011;6211;49.124;9.152;2022-09-09T15:26:58;0.93;;;0.30;;
12296;SDS011;6211;49.124;9.152;2022-09-09T15:29:25;0.88;;;0.40;;